Terminal Aerodrome Forecast
Issued by NWS

Home | Current Version | Previous Version | Text Only | Print | Product List | Glossary On
Versions: 1 2 3 4 5 6 7 8 9 10 11 12 13 14 15 16 17 18 19 20
431
FTUS44 KTSA 051135
TAFFYV
TAF
KFYV 051135Z 0512/0612 00000KT 1/4SM FZFG VV002
      TEMPO 0512/0514 2SM BR SCT002
     FM051400 00000KT 2SM BR FEW003 BKN200
     FM051600 14005KT 5SM BR BKN200
     FM051800 16007KT P6SM BKN120
     FM052200 14008KT P6SM SCT030 BKN100
     FM060000 VRB03KT 4SM -SHRA BR OVC025
     FM060900 35005KT 2SM BR OVC007=

USA.gov is the U.S. government's official web portal to all federal, state and local government web resources and services.